createdAt,value
2018-11-25T00:02:08.800Z,9.95
2018-11-25T00:08:03.856Z,8.1
2018-11-25T00:13:58.809Z,11.44
2018-11-25T00:19:53.840Z,7.62
2018-11-25T00:25:48.828Z,8.04
2018-11-25T00:31:43.834Z,8.16
2018-11-25T00:37:38.836Z,12.16
2018-11-25T00:43:33.864Z,11.54
2018-11-25T00:49:28.844Z,10.91
2018-11-25T00:55:23.840Z,9.14
2018-11-25T01:01:18.875Z,9.89
2018-11-25T01:07:13.844Z,10.58
2018-11-25T01:13:08.852Z,9.98
2018-11-25T01:19:03.862Z,10.16
2018-11-25T01:24:58.913Z,10.15
2018-11-25T01:30:53.852Z,8.22
2018-11-25T01:36:48.857Z,7.93
2018-11-25T01:42:43.897Z,7.83
2018-11-25T01:48:38.882Z,7.87
2018-11-25T01:54:33.870Z,7.29
2018-11-25T02:00:28.883Z,8.5
2018-11-25T02:06:23.886Z,8.29
2018-11-25T02:12:18.870Z,11.53
2018-11-25T02:18:13.950Z,13
2018-11-25T02:24:08.883Z,15.78
2018-11-25T02:30:03.888Z,14.49
2018-11-25T02:35:58.914Z,14.78
2018-11-25T02:41:53.908Z,18.2
2018-11-25T02:47:48.897Z,16.43
2018-11-25T02:53:43.899Z,18.69
2018-11-25T02:59:38.911Z,16.26
2018-11-25T03:05:33.900Z,16.67
2018-11-25T03:11:28.945Z,13.96
2018-11-25T03:17:23.930Z,15.09
2018-11-25T03:23:18.915Z,14.46
2018-11-25T03:29:13.936Z,13.15
2018-11-25T03:35:08.929Z,20.72
2018-11-25T03:41:03.944Z,25.15
2018-11-25T03:46:58.972Z,25.22
2018-11-25T03:52:53.962Z,23.77
2018-11-25T03:58:48.936Z,20.44
2018-11-25T04:04:44.006Z,25.83
2018-11-25T04:10:38.984Z,24.17
2018-11-25T04:16:34.016Z,25.67
2018-11-25T04:22:28.951Z,30.44
2018-11-25T04:28:23.979Z,31.74
2018-11-25T04:34:19.020Z,26.12
2018-11-25T04:40:13.968Z,28.49
2018-11-25T04:46:09.012Z,33.8
2018-11-25T04:52:03.977Z,33.48
2018-11-25T04:57:59.028Z,31.23
2018-11-25T05:03:54.032Z,26.85
2018-11-25T05:09:48.992Z,29.43
2018-11-25T05:15:44.021Z,25.6
2018-11-25T05:21:39.025Z,25.78
2018-11-25T05:27:34.000Z,23.75
2018-11-25T05:33:29.020Z,21.19
2018-11-25T05:39:24.052Z,23.46
2018-11-25T05:45:19.057Z,23.02
2018-11-25T05:51:14.034Z,22.85
2018-11-25T05:57:09.109Z,24.61
2018-11-25T06:03:04.018Z,20.55
2018-11-25T06:08:59.017Z,19.99
2018-11-25T06:14:54.019Z,21.36
2018-11-25T06:20:49.022Z,18.53
2018-11-25T06:26:44.070Z,22.81
2018-11-25T06:32:39.032Z,19.75
2018-11-25T06:38:34.081Z,20.78
2018-11-25T06:44:29.051Z,21.35
2018-11-25T06:50:24.084Z,28.82
2018-11-25T06:56:19.045Z,35.26
2018-11-25T07:02:14.065Z,26.07
2018-11-25T07:08:09.045Z,22.32
2018-11-25T07:14:04.082Z,22.79
2018-11-25T07:19:59.119Z,28
2018-11-25T07:25:54.060Z,24.81
2018-11-25T07:31:49.107Z,22.47
2018-11-25T07:37:44.086Z,21.81
2018-11-25T07:43:39.085Z,25.41
2018-11-25T07:49:34.101Z,34.14
2018-11-25T07:55:29.082Z,37.78
2018-11-25T08:01:24.096Z,44.69
2018-11-25T08:07:19.108Z,43.98
2018-11-25T08:13:14.100Z,49.1
2018-11-25T08:19:09.085Z,47.27
2018-11-25T08:25:04.095Z,48.22
2018-11-25T08:30:59.137Z,48.33
2018-11-25T08:36:54.111Z,42.47
2018-11-25T08:42:49.112Z,40.43
2018-11-25T08:48:44.175Z,63.08
2018-11-25T08:54:39.128Z,52.75
2018-11-25T09:00:34.151Z,56.24
2018-11-25T09:06:29.123Z,59.67
2018-11-25T09:12:24.116Z,52.64
2018-11-25T09:18:19.141Z,49.27
2018-11-25T09:24:14.133Z,53.7
2018-11-25T09:30:09.136Z,51.76
2018-11-25T09:36:04.166Z,52.34
2018-11-25T09:41:59.201Z,51.95
2018-11-25T09:47:54.131Z,50.96
2018-11-25T09:53:49.154Z,49.05
2018-11-25T09:59:44.172Z,86.66
2018-11-25T10:05:39.215Z,52.39
2018-11-25T10:11:34.168Z,54.01
2018-11-25T10:17:29.177Z,57.96
2018-11-25T10:23:24.215Z,58.68
2018-11-25T10:29:19.177Z,45.38
2018-11-25T10:35:14.189Z,49.4
2018-11-25T10:41:09.194Z,43.63
2018-11-25T10:47:04.208Z,45.68
2018-11-25T10:52:59.193Z,40.94
2018-11-25T10:58:54.221Z,36.44
2018-11-25T11:04:49.198Z,41.5
2018-11-25T11:10:44.216Z,30.35
2018-11-25T11:16:39.248Z,28.09
2018-11-25T11:22:34.235Z,35.5
2018-11-25T11:28:29.213Z,32.07
2018-11-25T11:34:24.211Z,18.11
2018-11-25T11:40:19.246Z,22.84
2018-11-25T11:46:14.290Z,18.63
2018-11-25T11:52:09.218Z,20.47
2018-11-25T11:58:04.226Z,20.22
2018-11-25T12:03:59.240Z,19.36
2018-11-25T12:09:54.221Z,19.75
2018-11-25T12:15:49.241Z,17.55
2018-11-25T12:21:44.313Z,13.26
2018-11-25T12:27:39.250Z,13.73
2018-11-25T12:33:34.263Z,14.78
2018-11-25T12:39:29.321Z,14.96
2018-11-25T12:45:24.291Z,16.13
2018-11-25T12:51:19.261Z,18.81
2018-11-25T12:57:14.257Z,22.9
2018-11-25T13:03:09.278Z,23.07
2018-11-25T13:09:04.289Z,22.3
2018-11-25T13:14:59.280Z,18.92
2018-11-25T13:20:54.331Z,20.35
2018-11-25T13:26:49.270Z,18.36
2018-11-25T13:32:44.268Z,17.65
2018-11-25T13:38:39.283Z,16.31
2018-11-25T13:44:34.272Z,16.13
2018-11-25T13:50:29.288Z,14.8
2018-11-25T13:56:24.336Z,14.21
2018-11-25T14:02:19.297Z,16.3
2018-11-25T14:08:14.279Z,11.47
2018-11-25T14:14:09.307Z,10.72
2018-11-25T14:20:04.328Z,10.02
2018-11-25T14:25:59.319Z,9.24
2018-11-25T14:31:54.336Z,10.39
2018-11-25T14:37:49.356Z,10.86
2018-11-25T14:43:44.320Z,8.41
2018-11-25T14:49:39.369Z,7.88
2018-11-25T14:55:34.357Z,7.51
2018-11-25T15:01:29.330Z,6.38
2018-11-25T15:07:24.343Z,7.84
2018-11-25T15:13:19.343Z,9.4
2018-11-25T15:19:14.370Z,8.74
2018-11-25T15:25:09.343Z,10.54
2018-11-25T15:31:04.338Z,9.91
2018-11-25T15:36:59.349Z,10.69
2018-11-25T15:42:54.394Z,11.46
2018-11-25T15:48:49.401Z,10
2018-11-25T15:54:44.342Z,10.37
2018-11-25T16:00:39.385Z,10.74
2018-11-25T16:06:34.376Z,8.79
2018-11-25T16:12:29.378Z,9.53
2018-11-25T16:18:24.374Z,17.92
2018-11-25T16:24:19.379Z,25.98
2018-11-25T16:30:14.375Z,24.98
2018-11-25T16:36:09.383Z,24.4
2018-11-25T16:42:04.411Z,18.61
2018-11-25T16:47:59.394Z,14.12
2018-11-25T16:53:54.392Z,13.23
2018-11-25T16:59:49.416Z,10.96
2018-11-25T17:05:44.404Z,7.92
2018-11-25T17:11:39.434Z,8.18
2018-11-25T17:17:34.457Z,7.9
2018-11-25T17:23:29.396Z,6.86
2018-11-25T17:29:24.441Z,7.7
2018-11-25T17:35:19.439Z,5.56
2018-11-25T17:41:14.422Z,4.93
2018-11-25T17:47:09.454Z,5.42
2018-11-25T17:53:04.438Z,5.62
2018-11-25T17:58:59.444Z,6.73
2018-11-25T18:04:54.460Z,7.21
2018-11-25T18:10:49.429Z,8.05
2018-11-25T18:16:44.516Z,6.91
2018-11-25T18:22:39.439Z,8.59
2018-11-25T18:28:34.480Z,9.27
2018-11-25T18:34:29.442Z,7.63
2018-11-25T18:40:24.476Z,8.39
2018-11-25T18:46:19.454Z,10.14
2018-11-25T18:52:14.451Z,9.52
2018-11-25T18:58:09.489Z,9.33
2018-11-25T19:04:04.526Z,9.05
2018-11-25T19:09:59.498Z,10.35
2018-11-25T19:15:54.477Z,10.58
2018-11-25T19:21:49.494Z,12.73
2018-11-25T19:27:44.501Z,15.15
2018-11-25T19:33:39.492Z,17.21
2018-11-25T19:39:34.522Z,20.34
2018-11-25T19:45:29.514Z,33.28
2018-11-25T19:51:24.501Z,22.34
2018-11-25T19:57:19.531Z,22.75
2018-11-25T20:03:14.552Z,21.14
2018-11-25T20:09:09.557Z,26.56
2018-11-25T20:15:04.528Z,27.61
2018-11-25T20:20:59.565Z,35.14
2018-11-25T20:26:54.546Z,36.83
2018-11-25T20:32:49.555Z,35.15
2018-11-25T20:38:44.530Z,29.96
2018-11-25T20:44:39.541Z,25.66
2018-11-25T20:50:34.561Z,26.82
2018-11-25T20:56:29.585Z,27.43
2018-11-25T21:02:28.818Z,24.71
2018-11-25T21:08:19.578Z,23.64
2018-11-25T21:14:14.554Z,25.69
2018-11-25T21:20:09.607Z,27.81
2018-11-25T21:26:04.575Z,25.63
2018-11-25T21:31:59.583Z,30.06
2018-11-25T21:37:54.579Z,29.78
2018-11-25T21:43:49.568Z,30.76
2018-11-25T21:49:44.555Z,28.1
2018-11-25T21:55:39.572Z,28.39
2018-11-25T22:01:34.629Z,32.6
2018-11-25T22:07:29.614Z,32.38
2018-11-25T22:13:24.614Z,24.24
2018-11-25T22:19:19.597Z,21.14
2018-11-25T22:25:14.622Z,18.96
2018-11-25T22:31:09.632Z,22.26
2018-11-25T22:37:04.591Z,18.6
2018-11-25T22:42:59.599Z,17.63
2018-11-25T22:48:54.612Z,19.98
2018-11-25T22:54:49.641Z,30.13
2018-11-25T23:00:44.607Z,36.12
2018-11-25T23:06:39.619Z,36.63
2018-11-25T23:12:34.674Z,38.77
2018-11-25T23:18:29.628Z,37.68
2018-11-25T23:24:24.618Z,33.62
2018-11-25T23:30:19.619Z,35.23
2018-11-25T23:36:14.650Z,48.27
2018-11-25T23:42:09.625Z,45.91
2018-11-25T23:48:04.645Z,40.05
2018-11-25T23:53:59.632Z,33.62
2018-11-25T23:59:54.658Z,32.73
